This is the latest recevied weather packets stored in our database for station/object URMT. If no packets are shown the sender has not sent any weather packets the latest 10 day(s).
| Time | Temp. | Humidity | Pressure | Rain* | Wind** | Luminosity | Snow |
|---|---|---|---|---|---|---|---|
| 1778315440 | 21.67° C | 40% | 1019 hPa | - | - | - | - |
| 1778313642 | 21.67° C | 37% | 1019 hPa | - | - | - | - |
| 1778311841 | 20.56° C | 43% | 1019 hPa | - | - | - | - |
| 1778310041 | 20° C | 42% | 1019 hPa | - | - | - | - |
| 1778308242 | 20° C | 39% | 1019 hPa | - | - | - | - |
| 1778306440 | 18.89° C | 45% | 1019 hPa | - | - | - | - |
| 1778304641 | 17.78° C | 45% | 1019 hPa | - | - | - | - |
| 1778302840 | 16.67° C | 48% | 1019 hPa | - | - | - | - |
| 1778301041 | 15.56° C | 51% | 1020 hPa | - | - | - | - |
| 1778299245 | 15° C | 54% | 1019 hPa | - | - | - | - |
| 1778297441 | 13.89° C | 62% | 1019 hPa | - | - | - | - |
| 1778295641 | 12.78° C | 62% | 1019 hPa | - | - | - | - |
| 1778293842 | 12.78° C | 62% | 1019 hPa | - | - | - | - |
| 1778292041 | 12.78° C | 62% | 1019 hPa | - | - | - | - |
| 1778290241 | 12.78° C | 66% | 1019 hPa | - | - | - | - |
| 1778288441 | 12.78° C | 66% | 1019 hPa | - | - | - | - |
| 1778286641 | 13.89° C | 67% | 1019 hPa | - | - | - | - |
| 1778284842 | 13.89° C | 67% | 1019 hPa | - | - | - | - |
| 1778283045 | 13.89° C | 67% | 1019 hPa | - | - | - | - |
| 1778281241 | 13.89° C | 67% | 1019 hPa | - | - | - | - |
| 1778279441 | 13.89° C | 71% | 1019 hPa | - | - | - | - |
| 1778277641 | 13.89° C | 71% | 1019 hPa | - | - | - | - |
| 1778275844 | 15° C | 67% | 1019 hPa | - | - | - | - |
| 1778274043 | 15° C | 67% | 1019 hPa | - | - | - | - |
| 1778272241 | 15.56° C | 63% | 1019 hPa | - | - | - | - |
* Rain since midnight (hover to see other rain measurements)
** Current wind speed in m/s (hover to see current wind gust speed)